WMT3BF LUKK-EDDN
Flight info
| Callsign | WMT3BF |
|---|---|
| Flight time | 2h 5m |
| Altitude | 38000 |
| Route | POGAV DCT GUXVA DCT BUDOP DCT ARSIN DCT SITNI DCT SUBEN/N0423F300 T161 AKINI Z109 UPALA UPALA1V |
| Aircraft | A321/M-SDE1E2E3FGIJ1J4RWXY/LB1 |
Departure
| Time | 2026-05-04 14:00 |
|---|---|
| Airport | Chişinău International Airport (LUKK) |
Arrival
| Time | 2026-05-04 16:05 |
|---|---|
| Airport | Nuremberg Airport (EDDN) |
| Time | Latitude | Longitude | Altitude | Speed | Heading |
|---|---|---|---|---|---|
| 2026-05-04 13:30 | 46.93426 | 28.92934 | 405 ft | 0 kts | 186° |
| 2026-05-04 13:49 | 46.93427 | 28.92934 | 408 ft | 1 kts | 186° |
| 2026-05-04 13:49 | 46.93432 | 28.92936 | 406 ft | 3 kts | 187° |
| 2026-05-04 13:50 | 46.93457 | 28.92934 | 404 ft | 4 kts | 153° |
| 2026-05-04 13:50 | 46.93475 | 28.92910 | 408 ft | 4 kts | 104° |
| 2026-05-04 13:50 | 46.93476 | 28.92900 | 408 ft | 0 kts | 96° |
| 2026-05-04 13:54 | 46.93475 | 28.92920 | 408 ft | 5 kts | 96° |
| 2026-05-04 13:54 | 46.93469 | 28.92991 | 408 ft | 8 kts | 96° |
| 2026-05-04 13:54 | 46.93448 | 28.93188 | 408 ft | 11 kts | 96° |
| 2026-05-04 13:55 | 46.93439 | 28.93310 | 407 ft | 13 kts | 96° |
| 2026-05-04 13:55 | 46.93367 | 28.93482 | 408 ft | 12 kts | 185° |
| 2026-05-04 13:55 | 46.93281 | 28.93467 | 408 ft | 13 kts | 187° |
| 2026-05-04 13:56 | 46.93188 | 28.93450 | 410 ft | 13 kts | 189° |
| 2026-05-04 13:56 | 46.93158 | 28.93349 | 410 ft | 13 kts | 277° |
| 2026-05-04 13:56 | 46.93186 | 28.93020 | 409 ft | 18 kts | 277° |
| 2026-05-04 13:57 | 46.93202 | 28.92828 | 408 ft | 20 kts | 277° |
| 2026-05-04 13:57 | 46.93220 | 28.92619 | 406 ft | 22 kts | 277° |
| 2026-05-04 13:58 | 46.93230 | 28.92035 | 407 ft | 13 kts | 207° |
| 2026-05-04 13:58 | 46.93037 | 28.91989 | 408 ft | 16 kts | 177° |
| 2026-05-04 13:58 | 46.92923 | 28.91994 | 408 ft | 17 kts | 179° |
| 2026-05-04 13:59 | 46.92824 | 28.91997 | 409 ft | 15 kts | 179° |
| 2026-05-04 13:59 | 46.92760 | 28.92020 | 409 ft | 4 kts | 101° |
| 2026-05-04 13:59 | 46.92767 | 28.92403 | 409 ft | 77 kts | 88° |
| 2026-05-04 14:00 | 46.92791 | 28.93543 | 410 ft | 144 kts | 88° |
| 2026-05-04 14:00 | 46.92820 | 28.96883 | 1555 ft | 167 kts | 86° |
| 2026-05-04 14:00 | 46.92852 | 28.98606 | 2131 ft | 177 kts | 85° |
| 2026-05-04 14:01 | 46.92903 | 29.00521 | 2465 ft | 200 kts | 84° |
| 2026-05-04 14:01 | 46.92961 | 29.02677 | 2770 ft | 225 kts | 85° |
| 2026-05-04 14:01 | 46.92222 | 29.07444 | 3763 ft | 268 kts | 132° |
| 2026-05-04 14:02 | 46.90594 | 29.08805 | 4550 ft | 278 kts | 167° |
| 2026-05-04 14:02 | 46.88738 | 29.08546 | 5753 ft | 265 kts | 204° |
| 2026-05-04 14:02 | 46.87349 | 29.06879 | 6785 ft | 261 kts | 239° |
| 2026-05-04 14:02 | 46.86827 | 29.04394 | 7554 ft | 257 kts | 273° |
| 2026-05-04 14:03 | 46.86905 | 29.01726 | 8063 ft | 274 kts | 277° |
| 2026-05-04 14:03 | 46.87033 | 28.98836 | 8451 ft | 294 kts | 278° |
| 2026-05-04 14:03 | 46.87176 | 28.95807 | 9151 ft | 302 kts | 278° |
| 2026-05-04 14:03 | 46.87325 | 28.92713 | 9902 ft | 308 kts | 277° |
| 2026-05-04 14:04 | 46.86974 | 28.86106 | 10629 ft | 351 kts | 263° |
| 2026-05-04 14:04 | 46.86502 | 28.82539 | 11169 ft | 362 kts | 261° |
| 2026-05-04 14:04 | 46.85969 | 28.78919 | 11868 ft | 367 kts | 260° |
| 2026-05-04 14:05 | 46.84922 | 28.71535 | 13325 ft | 375 kts | 262° |
| 2026-05-04 14:05 | 46.84440 | 28.67773 | 14029 ft | 379 kts | 263° |
| 2026-05-04 14:05 | 46.83975 | 28.63963 | 14677 ft | 383 kts | 263° |
| 2026-05-04 14:06 | 46.83516 | 28.60118 | 15340 ft | 386 kts | 263° |
| 2026-05-04 14:06 | 46.83054 | 28.56244 | 16015 ft | 389 kts | 263° |
| 2026-05-04 14:06 | 46.82585 | 28.52336 | 16711 ft | 392 kts | 263° |
| 2026-05-04 14:06 | 46.82109 | 28.48402 | 17380 ft | 396 kts | 262° |
| 2026-05-04 14:07 | 46.81625 | 28.44428 | 18040 ft | 399 kts | 262° |
| 2026-05-04 14:07 | 46.81133 | 28.40427 | 18652 ft | 402 kts | 262° |
| 2026-05-04 14:07 | 46.80632 | 28.36408 | 19316 ft | 403 kts | 262° |
| 2026-05-04 14:07 | 46.80131 | 28.32386 | 19969 ft | 404 kts | 262° |
| 2026-05-04 14:08 | 46.79634 | 28.28400 | 20619 ft | 405 kts | 262° |
| 2026-05-04 14:08 | 46.79129 | 28.24355 | 21277 ft | 406 kts | 262° |
| 2026-05-04 14:08 | 46.78623 | 28.20304 | 21950 ft | 406 kts | 262° |
| 2026-05-04 14:08 | 46.78179 | 28.16238 | 22613 ft | 406 kts | 267° |
| 2026-05-04 14:09 | 46.77942 | 28.08011 | 23825 ft | 407 kts | 269° |
| 2026-05-04 14:09 | 46.77828 | 28.03886 | 24323 ft | 408 kts | 269° |
| 2026-05-04 14:10 | 46.77585 | 27.95606 | 25320 ft | 409 kts | 269° |
| 2026-05-04 14:10 | 46.77459 | 27.91449 | 25798 ft | 411 kts | 268° |
| 2026-05-04 14:10 | 46.77331 | 27.87271 | 26167 ft | 414 kts | 268° |
| 2026-05-04 14:10 | 46.77204 | 27.83064 | 26619 ft | 416 kts | 268° |
| 2026-05-04 14:11 | 46.77078 | 27.78844 | 27113 ft | 416 kts | 268° |
| 2026-05-04 14:11 | 46.76867 | 27.71815 | 27872 ft | 419 kts | 268° |
| 2026-05-04 14:11 | 46.76689 | 27.66114 | 28443 ft | 422 kts | 268° |
| 2026-05-04 14:12 | 46.76553 | 27.61834 | 28892 ft | 423 kts | 267° |
| 2026-05-04 14:12 | 46.76462 | 27.58992 | 29177 ft | 424 kts | 267° |
| 2026-05-04 14:12 | 46.76179 | 27.50370 | 30022 ft | 427 kts | 267° |
| 2026-05-04 14:13 | 46.76036 | 27.46037 | 30395 ft | 429 kts | 267° |
| 2026-05-04 14:13 | 46.75891 | 27.41687 | 30690 ft | 431 kts | 267° |
| 2026-05-04 14:13 | 46.75744 | 27.37302 | 30967 ft | 434 kts | 267° |
| 2026-05-04 14:13 | 46.75594 | 27.32893 | 31278 ft | 437 kts | 267° |
| 2026-05-04 14:14 | 46.75442 | 27.28450 | 31601 ft | 439 kts | 267° |
| 2026-05-04 14:14 | 46.75134 | 27.19565 | 32494 ft | 438 kts | 267° |
| 2026-05-04 14:14 | 46.74977 | 27.15140 | 32920 ft | 437 kts | 266° |
| 2026-05-04 14:15 | 46.74649 | 27.06287 | 33759 ft | 437 kts | 267° |
| 2026-05-04 14:15 | 46.74605 | 26.97457 | 34509 ft | 436 kts | 271° |
| 2026-05-04 14:16 | 46.74837 | 26.88560 | 34872 ft | 443 kts | 272° |
| 2026-05-04 14:16 | 46.74950 | 26.84055 | 35144 ft | 445 kts | 272° |
| 2026-05-04 14:17 | 46.75097 | 26.75034 | 35786 ft | 445 kts | 271° |
| 2026-05-04 14:17 | 46.75141 | 26.70524 | 36124 ft | 445 kts | 271° |
| 2026-05-04 14:17 | 46.75206 | 26.61514 | 36770 ft | 444 kts | 271° |
| 2026-05-04 14:18 | 46.75240 | 26.57012 | 37060 ft | 444 kts | 271° |
| 2026-05-04 14:18 | 46.75315 | 26.48002 | 37555 ft | 445 kts | 271° |
| 2026-05-04 14:19 | 46.75393 | 26.38957 | 37995 ft | 447 kts | 271° |
| 2026-05-04 14:19 | 46.75462 | 26.29904 | 38037 ft | 446 kts | 272° |
| 2026-05-04 14:20 | 46.75518 | 26.20859 | 38044 ft | 446 kts | 272° |
| 2026-05-04 14:20 | 46.75570 | 26.11816 | 38042 ft | 446 kts | 271° |
| 2026-05-04 14:21 | 46.75642 | 25.98227 | 38051 ft | 449 kts | 272° |
| 2026-05-04 14:21 | 46.75681 | 25.89126 | 38055 ft | 449 kts | 272° |
| 2026-05-04 14:22 | 46.75709 | 25.80080 | 38048 ft | 449 kts | 271° |
| 2026-05-04 14:22 | 46.75724 | 25.70969 | 38059 ft | 449 kts | 271° |
| 2026-05-04 14:23 | 46.75733 | 25.57310 | 38055 ft | 449 kts | 270° |
| 2026-05-04 14:24 | 46.75738 | 25.48193 | 38049 ft | 450 kts | 272° |
| 2026-05-04 14:24 | 46.75739 | 25.39070 | 38047 ft | 450 kts | 272° |
| 2026-05-04 14:25 | 46.75731 | 25.29942 | 38050 ft | 450 kts | 270° |
| 2026-05-04 14:25 | 46.75691 | 25.16240 | 38044 ft | 450 kts | 271° |
| 2026-05-04 14:26 | 46.75655 | 25.07106 | 38032 ft | 451 kts | 271° |
| 2026-05-04 14:26 | 46.75617 | 24.97961 | 38037 ft | 451 kts | 271° |
| 2026-05-04 14:27 | 46.75580 | 24.88819 | 38043 ft | 451 kts | 271° |
| 2026-05-04 14:27 | 46.75533 | 24.79675 | 38038 ft | 451 kts | 271° |
| 2026-05-04 14:28 | 46.75470 | 24.70530 | 38039 ft | 451 kts | 270° |
| 2026-05-04 14:28 | 46.75426 | 24.64468 | 38044 ft | 451 kts | 270° |
| 2026-05-04 14:29 | 46.75273 | 24.46809 | 38055 ft | 451 kts | 271° |
| 2026-05-04 14:30 | 46.75189 | 24.37667 | 38058 ft | 451 kts | 270° |
| 2026-05-04 14:31 | 46.75050 | 24.23952 | 38047 ft | 451 kts | 270° |
| 2026-05-04 14:32 | 46.74832 | 24.05672 | 38077 ft | 451 kts | 270° |
| 2026-05-04 14:32 | 46.74711 | 23.96531 | 38090 ft | 451 kts | 271° |
| 2026-05-04 14:33 | 46.74584 | 23.87453 | 38094 ft | 451 kts | 270° |
| 2026-05-04 14:33 | 46.74455 | 23.78315 | 38095 ft | 451 kts | 270° |
| 2026-05-04 14:34 | 46.74316 | 23.69181 | 38109 ft | 450 kts | 270° |
| 2026-05-04 14:34 | 46.74164 | 23.60053 | 38106 ft | 450 kts | 270° |
| 2026-05-04 14:35 | 46.74014 | 23.50933 | 38101 ft | 450 kts | 270° |
| 2026-05-04 14:35 | 46.73856 | 23.41818 | 38093 ft | 450 kts | 270° |
| 2026-05-04 14:36 | 46.73683 | 23.32709 | 38104 ft | 449 kts | 270° |
| 2026-05-04 14:36 | 46.73507 | 23.23607 | 38107 ft | 449 kts | 270° |
| 2026-05-04 14:37 | 46.73321 | 23.14504 | 38116 ft | 449 kts | 270° |
| 2026-05-04 14:37 | 46.73128 | 23.05398 | 38116 ft | 449 kts | 270° |
| 2026-05-04 14:38 | 46.72932 | 22.96299 | 38121 ft | 449 kts | 270° |
| 2026-05-04 14:38 | 46.72729 | 22.87205 | 38113 ft | 448 kts | 270° |
| 2026-05-04 14:39 | 46.72521 | 22.78126 | 38123 ft | 448 kts | 270° |
| 2026-05-04 14:39 | 46.72304 | 22.69048 | 38127 ft | 448 kts | 270° |
| 2026-05-04 14:40 | 46.71954 | 22.55446 | 38123 ft | 447 kts | 270° |
| 2026-05-04 14:40 | 46.71720 | 22.46387 | 38112 ft | 447 kts | 270° |
| 2026-05-04 14:41 | 46.71478 | 22.37331 | 38124 ft | 447 kts | 269° |
| 2026-05-04 14:42 | 46.70976 | 22.19267 | 38119 ft | 446 kts | 269° |
| 2026-05-04 14:42 | 46.70717 | 22.10249 | 38118 ft | 446 kts | 269° |
| 2026-05-04 14:43 | 46.70443 | 22.01232 | 38102 ft | 445 kts | 269° |
| 2026-05-04 14:43 | 46.70162 | 21.92225 | 38111 ft | 445 kts | 269° |
| 2026-05-04 14:44 | 46.69876 | 21.83220 | 38115 ft | 445 kts | 269° |
| 2026-05-04 14:44 | 46.69585 | 21.74217 | 38116 ft | 445 kts | 269° |
| 2026-05-04 14:45 | 46.69288 | 21.65283 | 38115 ft | 445 kts | 269° |
| 2026-05-04 14:45 | 46.68980 | 21.56289 | 38116 ft | 445 kts | 269° |
| 2026-05-04 14:46 | 46.69237 | 21.47856 | 38106 ft | 440 kts | 283° |
| 2026-05-04 14:46 | 46.70924 | 21.39316 | 38113 ft | 439 kts | 289° |
| 2026-05-04 14:47 | 46.72699 | 21.30809 | 38118 ft | 439 kts | 289° |
| 2026-05-04 14:47 | 46.74453 | 21.22287 | 38119 ft | 439 kts | 288° |
| 2026-05-04 14:48 | 46.76208 | 21.13760 | 38113 ft | 439 kts | 289° |
| 2026-05-04 14:48 | 46.77957 | 21.05239 | 38118 ft | 438 kts | 288° |
| 2026-05-04 14:49 | 46.79700 | 20.96719 | 38117 ft | 438 kts | 288° |
| 2026-05-04 14:49 | 46.81436 | 20.88196 | 38111 ft | 438 kts | 288° |
| 2026-05-04 14:50 | 46.83163 | 20.79674 | 38103 ft | 438 kts | 288° |
| 2026-05-04 14:50 | 46.84877 | 20.71153 | 38107 ft | 437 kts | 288° |
| 2026-05-04 14:51 | 46.86586 | 20.62651 | 38111 ft | 436 kts | 288° |
| 2026-05-04 14:51 | 46.88286 | 20.54154 | 38114 ft | 435 kts | 288° |
| 2026-05-04 14:52 | 46.89984 | 20.45667 | 38109 ft | 435 kts | 288° |
| 2026-05-04 14:52 | 46.91679 | 20.37176 | 38104 ft | 435 kts | 288° |
| 2026-05-04 14:53 | 46.93353 | 20.28685 | 38105 ft | 435 kts | 288° |
| 2026-05-04 14:53 | 46.95011 | 20.20236 | 38103 ft | 435 kts | 288° |
| 2026-05-04 14:54 | 46.96601 | 20.12085 | 38102 ft | 435 kts | 288° |
| 2026-05-04 14:54 | 46.98258 | 20.03575 | 38091 ft | 434 kts | 288° |
| 2026-05-04 14:55 | 46.99907 | 19.95066 | 38099 ft | 434 kts | 288° |
| 2026-05-04 14:55 | 47.01550 | 19.86564 | 38103 ft | 434 kts | 288° |
| 2026-05-04 14:56 | 47.03188 | 19.78061 | 38112 ft | 433 kts | 288° |
| 2026-05-04 14:56 | 47.04819 | 19.69559 | 38106 ft | 433 kts | 287° |
| 2026-05-04 14:57 | 47.06439 | 19.61056 | 38095 ft | 433 kts | 287° |
| 2026-05-04 14:57 | 47.08051 | 19.52556 | 38101 ft | 432 kts | 287° |
| 2026-05-04 14:58 | 47.09659 | 19.44063 | 38093 ft | 432 kts | 287° |
| 2026-05-04 14:58 | 47.10991 | 19.37008 | 38090 ft | 432 kts | 287° |
| 2026-05-04 14:59 | 47.12579 | 19.28512 | 38082 ft | 431 kts | 287° |
| 2026-05-04 15:00 | 47.14947 | 19.15776 | 38093 ft | 431 kts | 286° |
| 2026-05-04 15:00 | 47.16521 | 19.07294 | 38094 ft | 430 kts | 286° |
| 2026-05-04 15:01 | 47.18870 | 18.94573 | 38078 ft | 430 kts | 286° |
| 2026-05-04 15:01 | 47.20424 | 18.86085 | 38092 ft | 430 kts | 286° |
| 2026-05-04 15:02 | 47.21966 | 18.77597 | 38084 ft | 429 kts | 286° |
| 2026-05-04 15:02 | 47.23502 | 18.69110 | 38084 ft | 429 kts | 286° |
| 2026-05-04 15:03 | 47.25035 | 18.60618 | 38082 ft | 429 kts | 286° |
| 2026-05-04 15:03 | 47.26562 | 18.52125 | 38093 ft | 429 kts | 286° |
| 2026-05-04 15:04 | 47.28083 | 18.43630 | 38085 ft | 429 kts | 286° |
| 2026-05-04 15:04 | 47.29603 | 18.35142 | 38084 ft | 428 kts | 286° |
| 2026-05-04 15:05 | 47.31110 | 18.26651 | 38085 ft | 428 kts | 286° |
| 2026-05-04 15:05 | 47.32601 | 18.18160 | 38080 ft | 428 kts | 285° |
| 2026-05-04 15:06 | 47.34083 | 18.09725 | 38079 ft | 428 kts | 285° |
| 2026-05-04 15:07 | 47.36310 | 17.96989 | 38078 ft | 427 kts | 285° |
| 2026-05-04 15:07 | 47.37779 | 17.88493 | 38071 ft | 427 kts | 285° |
| 2026-05-04 15:08 | 47.39242 | 17.79995 | 38062 ft | 427 kts | 285° |
| 2026-05-04 15:08 | 47.40701 | 17.71494 | 38058 ft | 427 kts | 285° |
| 2026-05-04 15:09 | 47.42154 | 17.63001 | 38055 ft | 426 kts | 285° |
| 2026-05-04 15:09 | 47.43603 | 17.54518 | 38053 ft | 426 kts | 285° |
| 2026-05-04 15:10 | 47.45755 | 17.41788 | 38055 ft | 426 kts | 284° |
| 2026-05-04 15:11 | 47.47176 | 17.33303 | 38053 ft | 425 kts | 284° |
| 2026-05-04 15:11 | 47.48390 | 17.26002 | 38049 ft | 425 kts | 284° |
| 2026-05-04 15:12 | 47.49807 | 17.17523 | 38046 ft | 424 kts | 284° |
| 2026-05-04 15:12 | 47.51218 | 17.09050 | 38036 ft | 424 kts | 284° |
| 2026-05-04 15:13 | 47.52618 | 17.00580 | 38032 ft | 424 kts | 284° |
| 2026-05-04 15:13 | 47.54004 | 16.92159 | 38030 ft | 424 kts | 284° |
| 2026-05-04 15:14 | 47.55386 | 16.83632 | 38031 ft | 422 kts | 283° |
| 2026-05-04 15:14 | 47.56785 | 16.75260 | 38023 ft | 421 kts | 288° |
| 2026-05-04 15:15 | 47.58883 | 16.67169 | 38020 ft | 421 kts | 291° |
| 2026-05-04 15:15 | 47.61018 | 16.59093 | 38018 ft | 421 kts | 291° |
| 2026-05-04 15:16 | 47.64198 | 16.46975 | 38011 ft | 420 kts | 291° |
| 2026-05-04 15:17 | 47.67351 | 16.34850 | 37994 ft | 420 kts | 291° |
| 2026-05-04 15:17 | 47.70500 | 16.22698 | 38002 ft | 421 kts | 291° |
| 2026-05-04 15:18 | 47.72594 | 16.14590 | 38007 ft | 420 kts | 290° |
| 2026-05-04 15:19 | 47.75729 | 16.02425 | 38004 ft | 420 kts | 290° |
| 2026-05-04 15:19 | 47.78841 | 15.90249 | 38007 ft | 420 kts | 290° |
| 2026-05-04 15:20 | 47.80904 | 15.82116 | 38003 ft | 420 kts | 290° |
| 2026-05-04 15:20 | 47.82965 | 15.73989 | 37991 ft | 420 kts | 290° |
| 2026-05-04 15:21 | 47.85028 | 15.65855 | 37998 ft | 420 kts | 290° |
| 2026-05-04 15:22 | 47.88097 | 15.53641 | 37988 ft | 420 kts | 289° |
| 2026-05-04 15:22 | 47.91154 | 15.41415 | 37995 ft | 420 kts | 289° |
| 2026-05-04 15:23 | 47.93192 | 15.33254 | 37977 ft | 420 kts | 289° |
| 2026-05-04 15:23 | 47.95210 | 15.25126 | 37971 ft | 421 kts | 289° |
| 2026-05-04 15:24 | 47.99254 | 15.08726 | 37959 ft | 421 kts | 289° |
| 2026-05-04 15:25 | 48.01262 | 15.00511 | 37975 ft | 421 kts | 288° |
| 2026-05-04 15:26 | 48.04271 | 14.88179 | 37957 ft | 421 kts | 288° |
| 2026-05-04 15:26 | 48.07349 | 14.75896 | 37958 ft | 421 kts | 290° |
| 2026-05-04 15:27 | 48.10614 | 14.63706 | 37949 ft | 421 kts | 290° |
| 2026-05-04 15:28 | 48.13816 | 14.51474 | 37947 ft | 421 kts | 289° |
| 2026-05-04 15:29 | 48.16982 | 14.39211 | 37943 ft | 421 kts | 289° |
| 2026-05-04 15:30 | 48.24336 | 14.10634 | 37942 ft | 420 kts | 289° |
| 2026-05-04 15:31 | 48.27450 | 13.98337 | 37934 ft | 420 kts | 289° |
| 2026-05-04 15:32 | 48.32644 | 13.77837 | 37935 ft | 420 kts | 289° |
| 2026-05-04 15:34 | 48.37787 | 13.57262 | 37939 ft | 421 kts | 288° |
| 2026-05-04 15:34 | 48.40869 | 13.44901 | 37954 ft | 421 kts | 288° |
| 2026-05-04 15:35 | 48.43930 | 13.32515 | 37940 ft | 421 kts | 288° |
| 2026-05-04 15:36 | 48.47163 | 13.20203 | 37939 ft | 422 kts | 290° |
| 2026-05-04 15:36 | 48.49354 | 13.12007 | 37938 ft | 421 kts | 289° |
| 2026-05-04 15:37 | 48.51517 | 13.03799 | 37938 ft | 421 kts | 289° |
| 2026-05-04 15:37 | 48.53663 | 12.95579 | 37939 ft | 421 kts | 289° |
| 2026-05-04 15:38 | 48.55806 | 12.87358 | 37938 ft | 421 kts | 289° |
| 2026-05-04 15:38 | 48.57925 | 12.79187 | 37936 ft | 421 kts | 289° |
| 2026-05-04 15:39 | 48.60047 | 12.70956 | 37942 ft | 421 kts | 289° |
| 2026-05-04 15:40 | 48.63236 | 12.58616 | 37950 ft | 420 kts | 289° |
| 2026-05-04 15:40 | 48.65353 | 12.50391 | 37946 ft | 420 kts | 289° |
| 2026-05-04 15:41 | 48.67448 | 12.42157 | 37945 ft | 420 kts | 289° |
| 2026-05-04 15:41 | 48.68493 | 12.38031 | 37604 ft | 422 kts | 289° |
| 2026-05-04 15:41 | 48.69556 | 12.33834 | 36566 ft | 431 kts | 289° |
| 2026-05-04 15:41 | 48.70634 | 12.29579 | 35865 ft | 433 kts | 289° |
| 2026-05-04 15:42 | 48.71712 | 12.25319 | 35194 ft | 434 kts | 289° |
| 2026-05-04 15:42 | 48.72792 | 12.21055 | 34670 ft | 432 kts | 289° |
| 2026-05-04 15:42 | 48.73864 | 12.16830 | 34214 ft | 428 kts | 289° |
| 2026-05-04 15:42 | 48.75099 | 12.12733 | 33681 ft | 428 kts | 297° |
| 2026-05-04 15:43 | 48.76763 | 12.08996 | 33170 ft | 427 kts | 306° |
| 2026-05-04 15:43 | 48.78608 | 12.05491 | 32680 ft | 424 kts | 306° |
| 2026-05-04 15:43 | 48.80434 | 12.02007 | 32180 ft | 420 kts | 305° |
| 2026-05-04 15:43 | 48.82240 | 11.98545 | 31677 ft | 417 kts | 305° |
| 2026-05-04 15:44 | 48.84025 | 11.95105 | 31202 ft | 413 kts | 305° |
| 2026-05-04 15:44 | 48.85792 | 11.91692 | 30697 ft | 410 kts | 305° |
| 2026-05-04 15:44 | 48.87550 | 11.88299 | 30223 ft | 407 kts | 305° |
| 2026-05-04 15:44 | 48.89297 | 11.84936 | 29699 ft | 404 kts | 305° |
| 2026-05-04 15:45 | 48.91030 | 11.81600 | 29227 ft | 400 kts | 305° |
| 2026-05-04 15:45 | 48.92742 | 11.78297 | 28777 ft | 395 kts | 305° |
| 2026-05-04 15:45 | 48.94431 | 11.75030 | 28321 ft | 391 kts | 305° |
| 2026-05-04 15:45 | 48.96100 | 11.71793 | 27892 ft | 387 kts | 304° |
| 2026-05-04 15:46 | 48.97754 | 11.68579 | 27465 ft | 384 kts | 304° |
| 2026-05-04 15:46 | 48.99391 | 11.65394 | 27039 ft | 381 kts | 304° |
| 2026-05-04 15:46 | 49.01016 | 11.62225 | 26641 ft | 378 kts | 304° |
| 2026-05-04 15:46 | 49.02631 | 11.59075 | 26234 ft | 376 kts | 304° |
| 2026-05-04 15:47 | 49.04233 | 11.55947 | 25826 ft | 373 kts | 304° |
| 2026-05-04 15:47 | 49.05290 | 11.53883 | 25563 ft | 372 kts | 304° |
| 2026-05-04 15:47 | 49.06875 | 11.50790 | 25172 ft | 369 kts | 304° |
| 2026-05-04 15:47 | 49.08449 | 11.47709 | 24761 ft | 367 kts | 304° |
| 2026-05-04 15:48 | 49.10013 | 11.44637 | 24338 ft | 365 kts | 304° |
| 2026-05-04 15:48 | 49.11569 | 11.41585 | 23928 ft | 364 kts | 304° |
| 2026-05-04 15:48 | 49.14662 | 11.35516 | 23033 ft | 360 kts | 304° |
| 2026-05-04 15:49 | 49.16190 | 11.32516 | 22604 ft | 357 kts | 304° |
| 2026-05-04 15:49 | 49.17715 | 11.29523 | 22453 ft | 358 kts | 304° |
| 2026-05-04 15:49 | 49.19244 | 11.26507 | 22453 ft | 360 kts | 304° |
| 2026-05-04 15:49 | 49.20780 | 11.23484 | 22453 ft | 361 kts | 306° |
| 2026-05-04 15:50 | 49.22515 | 11.20692 | 22455 ft | 365 kts | 314° |
| 2026-05-04 15:50 | 49.24427 | 11.18129 | 22457 ft | 365 kts | 315° |
| 2026-05-04 15:50 | 49.26308 | 11.15521 | 22471 ft | 363 kts | 310° |
| 2026-05-04 15:50 | 49.27888 | 11.12532 | 22469 ft | 359 kts | 299° |
| 2026-05-04 15:51 | 49.29093 | 11.09204 | 22260 ft | 356 kts | 291° |
| 2026-05-04 15:51 | 49.29892 | 11.05625 | 21089 ft | 358 kts | 278° |
| 2026-05-04 15:51 | 49.30363 | 11.01868 | 20115 ft | 361 kts | 284° |
| 2026-05-04 15:51 | 49.31601 | 10.98523 | 19327 ft | 366 kts | 310° |
| 2026-05-04 15:52 | 49.33660 | 10.96312 | 18565 ft | 372 kts | 335° |
| 2026-05-04 15:52 | 49.36230 | 10.95632 | 17799 ft | 384 kts | 2° |
| 2026-05-04 15:52 | 49.38786 | 10.96728 | 17244 ft | 385 kts | 27° |
| 2026-05-04 15:52 | 49.40817 | 10.99362 | 16729 ft | 382 kts | 54° |
| 2026-05-04 15:53 | 49.41912 | 11.02984 | 16278 ft | 372 kts | 81° |
| 2026-05-04 15:53 | 49.41887 | 11.06844 | 15869 ft | 357 kts | 108° |
| 2026-05-04 15:53 | 49.40849 | 11.10197 | 15471 ft | 344 kts | 127° |
| 2026-05-04 15:53 | 49.39614 | 11.13330 | 15009 ft | 344 kts | 120° |
| 2026-05-04 15:54 | 49.38838 | 11.16808 | 14566 ft | 346 kts | 105° |
| 2026-05-04 15:54 | 49.38389 | 11.20425 | 14152 ft | 344 kts | 103° |
| 2026-05-04 15:54 | 49.38027 | 11.24040 | 13724 ft | 341 kts | 102° |
| 2026-05-04 15:54 | 49.37705 | 11.27625 | 13279 ft | 337 kts | 101° |
| 2026-05-04 15:55 | 49.37392 | 11.31164 | 12864 ft | 332 kts | 102° |
| 2026-05-04 15:55 | 49.37072 | 11.34654 | 12456 ft | 328 kts | 102° |
| 2026-05-04 15:55 | 49.36742 | 11.38089 | 12059 ft | 324 kts | 102° |
| 2026-05-04 15:55 | 49.36445 | 11.41079 | 11708 ft | 321 kts | 103° |
| 2026-05-04 15:56 | 49.36102 | 11.44440 | 11308 ft | 318 kts | 103° |
| 2026-05-04 15:56 | 49.35757 | 11.47774 | 10926 ft | 315 kts | 103° |
| 2026-05-04 15:56 | 49.35414 | 11.51078 | 10535 ft | 313 kts | 103° |
| 2026-05-04 15:56 | 49.35106 | 11.54379 | 10084 ft | 314 kts | 96° |
| 2026-05-04 15:57 | 49.35496 | 11.57638 | 9915 ft | 311 kts | 68° |
| 2026-05-04 15:57 | 49.36799 | 11.60225 | 9629 ft | 309 kts | 38° |
| 2026-05-04 15:57 | 49.38739 | 11.61556 | 9229 ft | 307 kts | 9° |
| 2026-05-04 15:57 | 49.40849 | 11.61973 | 8820 ft | 305 kts | 357° |
| 2026-05-04 15:58 | 49.42848 | 11.61178 | 8489 ft | 295 kts | 328° |
| 2026-05-04 15:58 | 49.44325 | 11.59100 | 8129 ft | 286 kts | 300° |
| 2026-05-04 15:58 | 49.45055 | 11.56263 | 7445 ft | 292 kts | 279° |
| 2026-05-04 15:58 | 49.45350 | 11.53128 | 6675 ft | 300 kts | 276° |
| 2026-05-04 15:59 | 49.45622 | 11.49985 | 6179 ft | 292 kts | 279° |
| 2026-05-04 15:59 | 49.45929 | 11.46966 | 5782 ft | 280 kts | 279° |
| 2026-05-04 15:59 | 49.46229 | 11.44082 | 5394 ft | 263 kts | 279° |
| 2026-05-04 15:59 | 49.46500 | 11.41432 | 5097 ft | 239 kts | 279° |
| 2026-05-04 16:00 | 49.46743 | 11.39035 | 4804 ft | 216 kts | 280° |
| 2026-05-04 16:00 | 49.46959 | 11.36890 | 4541 ft | 190 kts | 281° |
| 2026-05-04 16:00 | 49.47150 | 11.35009 | 4281 ft | 172 kts | 281° |
| 2026-05-04 16:00 | 49.47326 | 11.33272 | 4079 ft | 159 kts | 281° |
| 2026-05-04 16:01 | 49.47488 | 11.31666 | 3874 ft | 147 kts | 281° |
| 2026-05-04 16:01 | 49.47641 | 11.30151 | 3680 ft | 141 kts | 281° |
| 2026-05-04 16:01 | 49.47791 | 11.28658 | 3502 ft | 139 kts | 282° |
| 2026-05-04 16:01 | 49.47939 | 11.27188 | 3322 ft | 139 kts | 282° |
| 2026-05-04 16:02 | 49.48086 | 11.25727 | 3136 ft | 138 kts | 282° |
| 2026-05-04 16:02 | 49.48231 | 11.24276 | 2928 ft | 136 kts | 282° |
| 2026-05-04 16:02 | 49.48515 | 11.21441 | 2572 ft | 133 kts | 283° |
| 2026-05-04 16:03 | 49.48655 | 11.20039 | 2402 ft | 133 kts | 282° |
| 2026-05-04 16:03 | 49.48795 | 11.18635 | 2225 ft | 132 kts | 282° |
| 2026-05-04 16:03 | 49.48935 | 11.17231 | 2054 ft | 132 kts | 282° |
| 2026-05-04 16:03 | 49.49074 | 11.15835 | 1873 ft | 132 kts | 281° |
| 2026-05-04 16:04 | 49.49215 | 11.14416 | 1694 ft | 134 kts | 282° |
| 2026-05-04 16:04 | 49.49503 | 11.11525 | 1349 ft | 139 kts | 282° |
| 2026-05-04 16:04 | 49.49640 | 11.10054 | 1158 ft | 135 kts | 282° |
| 2026-05-04 16:05 | 49.49782 | 11.08665 | 1038 ft | 123 kts | 281° |
| 2026-05-04 16:05 | 49.49896 | 11.07540 | 1030 ft | 90 kts | 278° |
| 2026-05-04 16:05 | 49.49978 | 11.06535 | 1022 ft | 12 kts | 242° |
| 2026-05-04 16:06 | 49.49903 | 11.06488 | 1021 ft | 14 kts | 166° |
| 2026-05-04 16:06 | 49.49862 | 11.06510 | 1021 ft | 0 kts | 160° |
| 2026-05-04 16:07 | 49.49859 | 11.06512 | 1021 ft | 1 kts | 160° |
| 2026-05-04 16:07 | 49.49787 | 11.06681 | 1021 ft | 13 kts | 97° |
| 2026-05-04 16:08 | 49.49775 | 11.06829 | 1022 ft | 15 kts | 97° |
| 2026-05-04 16:08 | 49.49724 | 11.07334 | 1027 ft | 17 kts | 98° |
| 2026-05-04 16:09 | 49.49690 | 11.07693 | 1026 ft | 16 kts | 98° |
| 2026-05-04 16:09 | 49.49576 | 11.07799 | 1026 ft | 7 kts | 167° |
| 2026-05-04 16:10 | 49.49520 | 11.07792 | 1028 ft | 0 kts | 188° |
| 2026-05-04 16:11 | 49.49519 | 11.07791 | 1028 ft | 0 kts | 188° |